Time;durP1;ratioP1;P1;durP2;ratioP2;P2;SDS_P1;SDS_P2;PMS_P1;PMS_P2;Temp;Humidity;BMP_temperature;BMP_pressure;BME280_temperature;BME280_humidity;BME280_pressure;Samples;Min_cycle;Max_cycle;Signal;HPM_P1;HPM_P2
2023/09/16 00:02:02;;;;;;;125.70;61.03;;;;;;;21.45;100.00;98882.81;5090284;28;20096;-87
2023/09/16 00:04:47;;;;;;;117.68;62.28;;;;;;;21.49;100.00;98888.38;5092307;28;20105;-90
2023/09/16 00:07:34;;;;;;;123.07;62.10;;;;;;;21.34;100.00;98879.34;5099450;28;20051;-89
2023/09/16 00:10:18;;;;;;;113.20;59.40;;;;;;;21.38;100.00;98885.75;5088004;28;20039;-89
2023/09/16 00:13:03;;;;;;;122.13;62.22;;;;;;;21.17;100.00;98892.97;5089461;28;20047;-89
2023/09/16 00:15:48;;;;;;;112.55;58.85;;;;;;;21.15;100.00;98884.44;5094368;28;20039;-89
2023/09/16 00:18:32;;;;;;;112.65;59.42;;;;;;;21.07;100.00;98896.44;5093849;28;20099;-89
2023/09/16 00:21:17;;;;;;;110.22;57.75;;;;;;;21.08;100.00;98884.69;5089500;28;20038;-89
2023/09/16 00:24:03;;;;;;;111.05;58.90;;;;;;;20.76;100.00;98882.28;5104290;28;20100;-86
2023/09/16 00:26:47;;;;;;;109.55;59.78;;;;;;;21.03;100.00;98878.56;5092378;28;20528;-89
2023/09/16 00:29:31;;;;;;;107.40;58.92;;;;;;;20.93;100.00;98898.03;5091246;28;20516;-90
2023/09/16 00:32:15;;;;;;;111.63;60.00;;;;;;;20.98;100.00;98900.72;5092040;28;20039;-89
2023/09/16 00:34:58;;;;;;;116.50;60.15;;;;;;;21.49;100.00;98899.88;5106088;28;20042;-89
2023/09/16 00:37:43;;;;;;;105.93;57.53;;;;;;;21.63;100.00;98912.69;5088811;28;20063;-89
2023/09/16 00:40:28;;;;;;;112.22;57.85;;;;;;;21.34;100.00;98903.38;5088312;28;20512;-87
2023/09/16 00:43:12;;;;;;;117.05;60.88;;;;;;;;;;5103817;28;20042;-89
2023/09/16 00:45:56;;;;;;;113.68;59.13;;;;;;;21.45;100.00;98908.69;5089144;28;20039;-88
2023/09/16 00:48:44;;;;;;;115.20;61.05;;;;;;;20.60;100.00;98911.59;5089788;28;20050;-87
2023/09/16 00:51:30;;;;;;;106.82;58.83;;;;;;;21.08;100.00;98907.94;5089768;28;20047;-90
2023/09/16 00:54:14;;;;;;;109.88;58.75;;;;;;;21.39;100.00;98913.22;5087393;28;20042;-87
2023/09/16 00:57:01;;;;;;;106.28;58.28;;;;;;;21.60;100.00;98916.69;5085802;28;20055;-87
2023/09/16 00:59:45;;;;;;;113.60;58.53;;;;;;;21.43;100.00;98911.66;5112449;28;20073;-89
2023/09/16 01:02:29;;;;;;;116.28;61.00;;;;;;;21.28;100.00;98903.66;5085612;28;20207;-88
2023/09/16 01:05:14;;;;;;;112.90;60.65;;;;;;;20.87;100.00;98899.13;5084106;28;20069;-88
2023/09/16 01:07:59;;;;;;;115.20;62.00;;;;;;;21.36;100.00;98900.44;5106243;28;20042;-89
2023/09/16 01:10:43;;;;;;;109.80;59.47;;;;;;;21.05;100.00;98897.81;5092467;28;20462;-88
2023/09/16 01:13:27;;;;;;;108.13;58.33;;;;;;;21.04;100.00;98907.66;5083313;28;20123;-90
2023/09/16 01:16:24;;;;;;;106.50;56.83;;;;;;;21.53;100.00;98916.16;5091731;28;20030;-89
2023/09/16 01:19:26;;;;;;;111.60;58.88;;;;;;;21.48;100.00;98919.66;5085272;28;20035;-89
2023/09/16 01:22:12;;;;;;;107.53;55.47;;;;;;;21.48;100.00;98913.50;5089077;28;20043;-90
2023/09/16 01:25:00;;;;;;;108.13;56.25;;;;;;;21.16;100.00;98902.06;5100191;28;20043;-90
2023/09/16 01:27:44;;;;;;;109.63;57.05;;;;;;;21.63;100.00;98910.78;5086167;28;20031;-88
2023/09/16 01:30:35;;;;;;;113.10;56.33;;;;;;;21.20;100.00;98907.66;5107054;28;20126;-88
2023/09/16 01:33:29;;;;;;;109.97;55.05;;;;;;;21.49;100.00;98915.91;5086955;28;20042;-87
2023/09/16 01:36:18;;;;;;;107.55;56.45;;;;;;;21.46;100.00;98921.78;5086322;28;20103;-86
2023/09/16 01:39:03;;;;;;;109.47;55.65;;;;;;;21.78;100.00;98907.28;5106474;28;20510;-88
2023/09/16 01:41:51;;;;;;;107.20;55.50;;;;;;;21.34;100.00;98911.38;5084997;28;20140;-89
2023/09/16 01:44:35;;;;;;;114.70;56.90;;;;;;;21.26;100.00;98912.72;5088388;28;20294;-84
2023/09/16 01:47:19;;;;;;;113.78;56.22;;;;;;;21.18;100.00;98909.81;5104405;28;20414;-88
2023/09/16 01:50:04;;;;;;;115.15;55.78;;;;;;;21.24;100.00;98914.88;5098872;28;20042;-87
2023/09/16 01:52:48;;;;;;;109.25;56.25;;;;;;;20.93;100.00;98908.72;5085898;28;20078;-90
2023/09/16 01:55:33;;;;;;;114.20;56.40;;;;;;;20.98;100.00;98912.19;5085730;28;20050;-89
2023/09/16 01:58:17;;;;;;;109.40;55.15;;;;;;;21.08;100.00;98915.94;5093466;28;20506;-89
2023/09/16 02:01:08;;;;;;;106.65;54.33;;;;;;;21.20;100.00;98913.78;5088643;28;20044;-87
2023/09/16 02:03:52;;;;;;;107.82;52.95;;;;;;;20.73;100.00;98914.81;5100956;28;20501;-86
2023/09/16 02:06:36;;;;;;;112.18;55.53;;;;;;;20.79;100.00;98930.56;5091444;28;20039;-87
2023/09/16 02:09:20;;;;;;;105.90;53.20;;;;;;;20.86;100.00;98925.00;5088467;28;20050;-86
2023/09/16 02:12:05;;;;;;;105.13;53.17;;;;;;;21.21;100.00;98907.38;5084214;28;20066;-89
2023/09/16 02:14:51;;;;;;;108.15;54.22;;;;;;;21.08;100.00;98907.94;5088389;28;20401;-87
2023/09/16 02:17:41;;;;;;;105.30;50.80;;;;;;;21.50;100.00;98920.16;5086263;28;20517;-88
2023/09/16 02:20:25;;;;;;;112.47;53.50;;;;;;;21.35;100.00;98923.66;5086694;28;20071;-86
2023/09/16 02:23:09;;;;;;;106.97;52.10;;;;;;;20.90;100.00;98927.94;5088640;28;20058;-86
2023/09/16 02:25:53;;;;;;;103.47;49.95;;;;;;;21.07;100.00;98927.69;5084827;28;20039;-86
2023/09/16 02:28:39;;;;;;;103.53;51.47;;;;;;;21.36;100.00;98927.13;5084072;28;20100;-88
2023/09/16 02:31:26;;;;;;;104.38;52.50;;;;;;;21.45;100.00;98930.06;5084730;28;20050;-88
2023/09/16 02:34:10;;;;;;;104.03;51.35;;;;;;;21.01;100.00;98940.22;5088580;28;20062;-88
2023/09/16 02:36:54;;;;;;;107.68;52.72;;;;;;;20.85;100.00;98939.41;5085895;28;20047;-90
2023/09/16 02:39:38;;;;;;;102.32;51.72;;;;;;;20.96;100.00;98933.00;5086722;28;20038;-88
2023/09/16 02:42:22;;;;;;;113.72;53.03;;;;;;;20.87;100.00;98939.13;5086046;28;20500;-87
2023/09/16 02:45:06;;;;;;;109.90;51.97;;;;;;;21.15;100.00;98926.34;5082624;28;20071;-88
2023/09/16 02:47:50;;;;;;;107.25;50.80;;;;;;;21.17;100.00;98932.22;5099747;28;20042;-88
2023/09/16 02:50:36;;;;;;;99.40;48.47;;;;;;;21.21;100.00;98933.28;5083135;28;20109;-89
2023/09/16 02:53:20;;;;;;;109.82;52.00;;;;;;;21.37;100.00;98936.72;5088703;28;20047;-88
2023/09/16 02:56:04;;;;;;;104.53;51.70;;;;;;;21.08;100.00;98939.97;5083796;28;20058;-86
2023/09/16 02:58:48;;;;;;;99.07;50.38;;;;;;;20.83;100.00;98933.50;5081406;28;20066;-89
2023/09/16 03:01:32;;;;;;;98.90;49.63;;;;;;;20.80;100.00;98934.88;5100444;28;20389;-88
2023/09/16 03:04:16;;;;;;;103.50;50.22;;;;;;;20.68;100.00;98940.41;5098514;28;20038;-88
2023/09/16 03:07:01;;;;;;;99.72;49.97;;;;;;;21.05;100.00;98943.16;5084464;28;20043;-86
2023/09/16 03:09:45;;;;;;;92.43;46.03;;;;;;;21.25;100.00;98937.81;5087092;28;20520;-88
2023/09/16 03:12:29;;;;;;;94.75;49.03;;;;;;;21.12;100.00;98949.03;5088579;28;20043;-89
2023/09/16 03:15:13;;;;;;;91.60;47.63;;;;;;;20.81;100.00;98954.31;5086814;28;20089;-88
2023/09/16 03:17:57;;;;;;;86.45;45.63;;;;;;;20.74;100.00;98951.09;5085583;28;20031;-86
2023/09/16 03:20:41;;;;;;;85.88;42.60;;;;;;;21.00;100.00;98951.97;5097650;28;20085;-86
2023/09/16 03:23:28;;;;;;;86.03;44.40;;;;;;;20.51;100.00;98955.84;5084982;28;20405;-88
2023/09/16 03:26:13;;;;;;;84.97;42.67;;;;;;;20.61;100.00;98955.84;5087116;28;20050;-89
2023/09/16 03:28:57;;;;;;;94.95;44.13;;;;;;;20.39;100.00;98948.84;5084899;28;20092;-89
2023/09/16 03:31:41;;;;;;;92.40;42.88;;;;;;;20.86;100.00;98957.03;5090041;28;20393;-88
2023/09/16 03:34:25;;;;;;;78.80;39.05;;;;;;;20.78;100.00;98960.16;5109659;28;20047;-87
2023/09/16 03:37:09;;;;;;;77.05;38.85;;;;;;;20.35;100.00;98947.00;5092973;28;20405;-88
2023/09/16 03:39:52;;;;;;;76.82;37.95;;;;;;;19.97;100.00;98961.22;5094930;28;20086;-86
2023/09/16 03:42:36;;;;;;;81.93;36.38;;;;;;;19.91;100.00;98958.75;5104283;28;20443;-86
2023/09/16 03:45:20;;;;;;;67.47;33.95;;;;;;;20.17;100.00;98965.06;5102134;28;20047;-89
2023/09/16 03:48:05;;;;;;;68.18;32.25;;;;;;;19.81;100.00;98975.47;5095236;28;20074;-90
2023/09/16 03:50:49;;;;;;;66.60;31.55;;;;;;;19.90;100.00;98960.59;5090755;28;20084;-87
2023/09/16 03:53:37;;;;;;;68.70;31.60;;;;;;;19.96;100.00;98958.81;5089275;28;20051;-87
2023/09/16 03:56:21;;;;;;;66.20;30.65;;;;;;;19.22;100.00;98969.19;5104628;28;20034;-88
2023/09/16 03:59:05;;;;;;;60.60;29.25;;;;;;;19.70;100.00;98966.63;5091106;28;20504;-89
2023/09/16 04:01:49;;;;;;;58.70;29.88;;;;;;;19.41;100.00;98967.75;5093220;28;20074;-89
2023/09/16 04:04:32;;;;;;;58.33;29.55;;;;;;;20.01;100.00;98963.38;5097565;28;20386;-86
2023/09/16 04:07:16;;;;;;;58.30;28.63;;;;;;;20.08;100.00;98967.41;5090793;28;20455;-88
2023/09/16 04:10:02;;;;;;;56.05;27.42;;;;;;;19.26;100.00;98971.13;5090697;28;20691;-90
2023/09/16 04:12:47;;;;;;;55.55;24.83;;;;;;;18.94;100.00;98974.50;5088146;28;20046;-88
2023/09/16 04:15:30;;;;;;;52.05;24.63;;;;;;;19.26;100.00;98978.28;5107253;28;20128;-89
2023/09/16 04:18:14;;;;;;;54.75;24.52;;;;;;;19.59;100.00;98962.28;5103434;28;20040;-88
2023/09/16 04:20:58;;;;;;;50.35;25.85;;;;;;;19.64;100.00;98960.47;5092075;28;20054;-88
2023/09/16 04:23:42;;;;;;;47.05;24.20;;;;;;;19.45;100.00;98965.38;5093751;28;20046;-87
2023/09/16 04:26:26;;;;;;;46.05;22.95;;;;;;;19.69;100.00;98975.69;5091457;28;20440;-88
2023/09/16 04:29:10;;;;;;;42.85;21.63;;;;;;;19.23;100.00;98968.94;5104326;28;20112;-88
2023/09/16 04:31:54;;;;;;;41.95;20.33;;;;;;;19.24;100.00;98978.53;5091394;28;20039;-84
2023/09/16 04:34:38;;;;;;;32.08;16.73;;;;;;;18.67;100.00;98983.28;5088032;28;20113;-85
2023/09/16 04:37:22;;;;;;;29.13;16.20;;;;;;;18.89;100.00;98977.13;5079307;28;20059;-87
2023/09/16 04:40:10;;;;;;;30.65;16.30;;;;;;;19.03;100.00;98969.56;5085188;28;20039;-89
2023/09/16 04:42:54;;;;;;;24.95;14.20;;;;;;;18.86;100.00;98977.59;5079569;28;20451;-87
2023/09/16 04:45:39;;;;;;;22.13;12.50;;;;;;;18.33;100.00;98978.13;5084588;28;20398;-86
2023/09/16 04:48:23;;;;;;;21.52;12.73;;;;;;;18.59;100.00;98986.38;5072551;28;20808;-89
2023/09/16 04:51:07;;;;;;;19.63;12.30;;;;;;;18.76;100.00;98993.47;5073714;28;20154;-89
2023/09/16 04:53:51;;;;;;;19.92;11.70;;;;;;;19.04;100.00;98984.47;5072087;28;20547;-88
2023/09/16 04:56:35;;;;;;;22.30;12.15;;;;;;;18.27;100.00;98987.03;5065434;28;20074;-86
2023/09/16 04:59:19;;;;;;;20.08;11.55;;;;;;;18.91;100.00;98988.31;5074500;28;20035;-89
2023/09/16 05:02:03;;;;;;;21.40;11.40;;;;;;;18.91;100.00;98984.84;5078194;28;20055;-87
2023/09/16 05:04:48;;;;;;;19.88;12.05;;;;;;;18.96;100.00;98987.53;5081240;28;20081;-86
2023/09/16 05:07:32;;;;;;;20.98;11.50;;;;;;;19.30;100.00;98991.88;5069828;28;20627;-86
2023/09/16 05:10:16;;;;;;;22.88;12.85;;;;;;;18.80;100.00;98989.25;5082761;28;20153;-88
2023/09/16 05:13:00;;;;;;;22.92;12.07;;;;;;;18.96;100.00;98987.53;5082003;28;20039;-84
2023/09/16 05:15:49;;;;;;;22.73;12.73;;;;;;;19.03;100.00;98996.19;5079423;28;20039;-84
2023/09/16 05:18:34;;;;;;;22.75;13.38;;;;;;;18.91;100.00;98998.97;5078560;28;20094;-87
2023/09/16 05:21:18;;;;;;;21.80;12.25;;;;;;;18.48;100.00;98997.97;5077788;28;20416;-85
2023/09/16 05:24:02;;;;;;;22.33;11.65;;;;;;;18.97;100.00;99002.47;5075554;28;20051;-85
2023/09/16 05:26:46;;;;;;;26.23;12.93;;;;;;;19.08;100.00;98995.44;5071314;28;20113;-86
2023/09/16 05:29:30;;;;;;;24.92;13.30;;;;;;;18.33;100.00;99004.69;5079973;28;20191;-88
2023/09/16 05:32:14;;;;;;;20.45;12.70;;;;;;;18.20;100.00;99018.31;5086123;28;20059;-89
2023/09/16 05:34:58;;;;;;;23.45;12.75;;;;;;;18.51;100.00;99008.88;5078991;28;20128;-89
2023/09/16 05:37:43;;;;;;;27.73;13.18;;;;;;;18.90;100.00;99010.66;5076807;28;20051;-87
2023/09/16 05:40:27;;;;;;;22.63;12.98;;;;;;;18.76;100.00;99012.09;5089446;28;20083;-89
2023/09/16 05:43:10;;;;;;;19.35;12.13;;;;;;;18.70;100.00;99022.66;5086304;28;20396;-87
2023/09/16 05:45:54;;;;;;;19.45;12.55;;;;;;;18.52;100.00;99007.81;5080449;28;20401;-84
2023/09/16 05:48:38;;;;;;;18.92;11.50;;;;;;;18.64;100.00;99010.34;5077179;28;20040;-87
2023/09/16 05:51:23;;;;;;;23.63;13.52;;;;;;;18.54;100.00;99023.53;5084264;28;20563;-87
2023/09/16 05:54:07;;;;;;;19.35;12.13;;;;;;;18.73;100.00;99037.31;5082762;28;20410;-87
2023/09/16 05:56:52;;;;;;;21.63;13.50;;;;;;;19.02;100.00;99029.16;5077590;28;20031;-87
2023/09/16 05:59:36;;;;;;;21.75;13.40;;;;;;;18.87;100.00;99032.44;5082982;28;20039;-86
2023/09/16 06:02:20;;;;;;;23.45;12.88;;;;;;;18.68;100.00;99038.06;5073389;28;20107;-86
2023/09/16 06:05:05;;;;;;;21.20;12.10;;;;;;;18.12;100.00;99041.59;5077733;28;20044;-88
2023/09/16 06:07:49;;;;;;;20.08;12.60;;;;;;;18.22;100.00;99054.22;5081288;28;20039;-86
2023/09/16 06:10:34;;;;;;;22.95;13.40;;;;;;;18.30;100.00;99055.66;5080812;28;20063;-86
2023/09/16 06:13:18;;;;;;;22.92;13.38;;;;;;;18.30;100.00;99058.31;5081505;28;20504;-86
2023/09/16 06:16:02;;;;;;;21.55;12.57;;;;;;;18.92;100.00;99052.94;5079114;28;20553;-87
2023/09/16 06:18:46;;;;;;;19.88;12.50;;;;;;;17.93;100.00;99067.56;5076749;28;20538;-87
2023/09/16 06:21:31;;;;;;;20.70;12.57;;;;;;;18.71;100.00;99063.34;5077594;28;20044;-87
2023/09/16 06:24:15;;;;;;;21.27;12.77;;;;;;;18.90;100.00;99066.50;5082106;28;20085;-87
2023/09/16 06:26:59;;;;;;;20.33;13.18;;;;;;;18.97;100.00;99059.13;5085407;28;20071;-87
2023/09/16 06:29:43;;;;;;;21.95;11.52;;;;;;;18.74;100.00;99070.03;5074457;28;20106;-86
2023/09/16 06:32:27;;;;;;;23.27;12.30;;;;;;;18.92;100.00;99063.56;5078234;28;20043;-86
2023/09/16 06:35:12;;;;;;;17.88;11.68;;;;;;;18.91;100.00;99073.44;5084285;28;20098;-85
2023/09/16 06:37:56;;;;;;;24.75;12.45;;;;;;;18.48;100.00;99067.84;5080124;28;20063;-86
2023/09/16 06:40:40;;;;;;;19.17;11.48;;;;;;;19.01;100.00;99071.94;5077017;28;20089;-85
2023/09/16 06:43:24;;;;;;;19.60;11.77;;;;;;;18.74;100.00;99078.00;5083722;28;20042;-88
2023/09/16 06:46:08;;;;;;;15.63;10.75;;;;;;;18.70;100.00;99086.47;5076109;28;20055;-88
2023/09/16 06:48:52;;;;;;;18.88;11.45;;;;;;;18.17;100.00;99079.91;5081020;28;20043;-86
2023/09/16 06:51:36;;;;;;;20.10;12.27;;;;;;;18.81;100.00;99086.59;5078454;28;20039;-86
2023/09/16 06:54:20;;;;;;;19.52;11.38;;;;;;;18.94;100.00;99085.41;5087505;28;20047;-86
2023/09/16 06:57:04;;;;;;;20.33;12.38;;;;;;;18.89;100.00;99090.66;5076848;28;20544;-85
2023/09/16 06:59:49;;;;;;;22.52;11.93;;;;;;;18.88;100.00;99081.91;5076926;28;20063;-85
2023/09/16 07:02:33;;;;;;;16.70;11.25;;;;;;;18.79;100.00;99089.50;5076428;28;20038;-85
2023/09/16 07:05:17;;;;;;;18.83;10.73;;;;;;;19.54;100.00;99091.66;5076348;28;20081;-84
2023/09/16 07:08:01;;;;;;;21.13;11.63;;;;;;;19.02;100.00;99097.50;5083069;28;20039;-86
2023/09/16 07:10:45;;;;;;;21.23;12.80;;;;;;;19.18;100.00;99093.94;5083510;28;20401;-85
2023/09/16 07:13:29;;;;;;;20.08;11.27;;;;;;;19.36;100.00;99095.47;5078915;28;20039;-86
2023/09/16 07:16:15;;;;;;;21.30;12.60;;;;;;;19.42;100.00;99098.97;5083527;28;20065;-86
2023/09/16 07:18:58;;;;;;;19.83;12.68;;;;;;;19.43;100.00;99103.25;5079126;28;20112;-88
2023/09/16 07:21:43;;;;;;;20.58;12.40;;;;;;;18.78;100.00;99103.84;5083846;28;20181;-84
2023/09/16 07:24:27;;;;;;;19.15;12.70;;;;;;;19.16;100.00;99106.69;5079867;28;20182;-79
2023/09/16 07:27:11;;;;;;;22.67;13.45;;;;;;;18.99;100.00;99114.78;5078454;28;21888;-82
2023/09/16 07:29:55;;;;;;;21.13;12.55;;;;;;;19.28;100.00;99117.19;5081505;28;20384;-83
2023/09/16 07:32:40;;;;;;;23.13;13.48;;;;;;;19.18;100.00;99115.22;5083661;28;20043;-83
2023/09/16 07:35:24;;;;;;;20.98;12.10;;;;;;;19.65;100.00;99123.66;5077878;28;20046;-81
2023/09/16 07:38:11;;;;;;;22.52;12.07;;;;;;;19.44;100.00;99118.16;5083156;28;20135;-82
2023/09/16 07:40:55;;;;;;;19.65;12.32;;;;;;;19.36;100.00;99119.44;5075395;28;20036;-81
2023/09/16 07:43:39;;;;;;;20.75;13.15;;;;;;;19.18;100.00;99123.22;5083136;28;20401;-83
2023/09/16 07:46:23;;;;;;;21.55;12.77;;;;;;;19.26;100.00;99109.50;5080226;28;20052;-82
2023/09/16 07:49:07;;;;;;;20.30;12.13;;;;;;;19.07;100.00;99116.97;5083644;28;20047;-82
2023/09/16 07:51:51;;;;;;;22.20;12.10;;;;;;;19.57;100.00;99116.16;5080926;28;20391;-84
2023/09/16 07:54:35;;;;;;;18.60;12.35;;;;;;;19.79;100.00;99122.22;5080743;28;20402;-84
2023/09/16 07:57:19;;;;;;;16.23;11.93;;;;;;;19.68;100.00;99133.84;5083410;28;20245;-86
2023/09/16 08:00:07;;;;;;;25.00;12.52;;;;;;;19.51;100.00;99115.28;5081756;28;20055;-84
2023/09/16 08:02:51;;;;;;;18.38;11.18;;;;;;;20.26;100.00;99127.94;5086982;28;20562;-85
2023/09/16 08:05:35;;;;;;;16.85;11.63;;;;;;;19.75;100.00;99121.13;5080838;28;20081;-84
2023/09/16 08:08:19;;;;;;;17.30;10.20;;;;;;;19.93;100.00;99127.16;5080549;28;20124;-84
2023/09/16 08:11:03;;;;;;;20.38;11.43;;;;;;;19.35;100.00;99122.34;5082545;28;20504;-85
2023/09/16 08:13:47;;;;;;;22.08;11.20;;;;;;;19.31;100.00;99126.56;5085921;28;20101;-83
2023/09/16 08:20:33;;;;;;;20.33;11.50;;;;;;;19.59;100.00;99111.38;5085652;28;20115;-85
2023/09/16 08:23:17;;;;;;;14.30;10.30;;;;;;;19.66;100.00;99126.09;5081583;28;20090;-84
2023/09/16 08:26:02;;;;;;;14.25;10.43;;;;;;;20.00;100.00;99126.94;5079495;28;20145;-85
2023/09/16 08:28:46;;;;;;;17.90;10.77;;;;;;;19.34;100.00;99131.38;5078384;28;20086;-85
2023/09/16 08:31:31;;;;;;;15.52;11.32;;;;;;;19.53;100.00;99127.31;5080250;28;20039;-86
2023/09/16 08:34:15;;;;;;;16.27;10.10;;;;;;;19.31;100.00;99137.19;5077454;28;20117;-84
2023/09/16 08:36:59;;;;;;;14.40;10.63;;;;;;;19.89;100.00;99136.69;5085322;28;20047;-84
2023/09/16 08:39:43;;;;;;;16.83;9.82;;;;;;;19.66;100.00;99138.63;5080339;28;20040;-84
2023/09/16 08:42:41;;;;;;;15.70;9.95;;;;;;;20.53;100.00;99151.00;5081468;28;20050;-85
2023/09/16 08:45:26;;;;;;;16.55;11.10;;;;;;;19.92;100.00;99147.66;5082110;28;20405;-84
2023/09/16 08:48:15;;;;;;;14.80;11.38;;;;;;;20.03;100.00;99153.84;5079205;28;20173;-85
2023/09/16 08:51:05;;;;;;;18.75;11.20;;;;;;;19.77;100.00;99152.84;5088975;28;20113;-84
2023/09/16 08:53:52;;;;;;;20.85;12.60;;;;;;;20.37;100.00;99161.56;5080432;28;20529;-85
2023/09/16 08:56:37;;;;;;;21.23;12.95;;;;;;;20.19;100.00;99161.97;5082480;28;20042;-84
2023/09/16 08:59:21;;;;;;;23.25;13.82;;;;;;;20.09;100.00;99168.84;5084420;28;20037;-85
2023/09/16 09:02:10;;;;;;;18.35;12.40;;;;;;;20.67;100.00;99170.03;5080270;28;20406;-85
2023/09/16 09:04:55;;;;;;;22.58;14.32;;;;;;;20.45;100.00;99160.28;5078388;28;20397;-84
2023/09/16 09:07:41;;;;;;;20.17;13.98;;;;;;;20.50;100.00;99168.31;5083967;28;20051;-84
2023/09/16 09:10:25;;;;;;;22.23;14.50;;;;;;;20.57;100.00;99154.78;5079009;28;20047;-84
2023/09/16 09:13:13;;;;;;;22.30;13.55;;;;;;;20.04;100.00;99152.78;5082127;28;20536;-83
2023/09/16 09:16:00;;;;;;;25.13;14.23;;;;;;;20.31;100.00;99172.47;5088540;28;20089;-83
2023/09/16 09:18:46;;;;;;;22.17;15.18;;;;;;;20.45;100.00;99154.19;5083926;28;20039;-84
2023/09/16 09:21:32;;;;;;;20.98;14.00;;;;;;;20.79;100.00;99167.16;5081073;28;20043;-82
2023/09/16 09:24:15;;;;;;;23.27;13.23;;;;;;;20.96;100.00;99164.34;5080377;28;20393;-84
2023/09/16 09:27:00;;;;;;;22.48;13.50;;;;;;;19.98;100.00;99167.16;5077499;28;20055;-83
2023/09/16 09:29:44;;;;;;;22.23;13.27;;;;;;;21.06;100.00;99174.25;5077781;28;20047;-83
2023/09/16 09:32:37;;;;;;;20.55;13.43;;;;;;;20.29;100.00;99171.91;5079380;28;20119;-83
2023/09/16 09:35:28;;;;;;;23.88;13.60;;;;;;;20.73;100.00;99181.53;5080327;28;20054;-82
2023/09/16 09:38:14;;;;;;;26.70;15.25;;;;;;;20.50;100.00;99183.53;5096862;28;20059;-81
2023/09/16 09:40:58;;;;;;;21.50;12.90;;;;;;;20.59;100.00;99168.63;5099120;28;20047;-84
2023/09/16 09:43:42;;;;;;;21.70;11.95;;;;;;;21.16;100.00;99179.63;5108006;28;20034;-88
2023/09/16 09:46:26;;;;;;;21.17;13.40;;;;;;;20.22;100.00;99188.94;5088245;28;20091;-86
2023/09/16 09:49:13;;;;;;;18.40;12.15;;;;;;;20.77;100.00;99185.28;5086421;28;20058;-86
2023/09/16 09:51:58;;;;;;;19.10;11.43;;;;;;;20.11;100.00;99182.72;5084427;28;20066;-86
2023/09/16 09:54:41;;;;;;;20.45;13.93;;;;;;;20.32;100.00;99193.53;5083590;28;20078;-83
2023/09/16 09:57:27;;;;;;;21.38;14.32;;;;;;;20.69;100.00;99195.38;5084046;28;20046;-83
2023/09/16 10:00:16;;;;;;;31.10;14.18;;;;;;;20.47;100.00;99205.38;5084518;28;20057;-85
2023/09/16 10:03:00;;;;;;;20.98;13.90;;;;;;;20.32;100.00;99206.88;5101046;28;20519;-84
2023/09/16 10:05:45;;;;;;;21.60;13.18;;;;;;;20.94;100.00;99199.28;5087519;28;20084;-85
2023/09/16 10:08:29;;;;;;;33.83;14.50;;;;;;;19.96;100.00;99195.91;5082909;28;20093;-84
2023/09/16 10:11:13;;;;;;;21.05;13.48;;;;;;;20.90;100.00;99195.53;5096258;28;20043;-85
2023/09/16 10:13:59;;;;;;;22.30;13.38;;;;;;;20.46;100.00;99201.09;5082789;28;20033;-85
2023/09/16 10:16:43;;;;;;;20.77;14.13;;;;;;;20.35;100.00;99194.91;5081822;28;20034;-85
2023/09/16 10:19:27;;;;;;;23.65;13.77;;;;;;;20.64;100.00;99194.53;5100613;28;20089;-87
2023/09/16 10:22:12;;;;;;;23.45;12.27;;;;;;;21.05;100.00;99194.00;5084231;28;20495;-87
2023/09/16 10:24:56;;;;;;;24.08;12.88;;;;;;;20.92;100.00;99192.59;5098959;28;20067;-85
2023/09/16 10:27:50;;;;;;;26.77;14.60;;;;;;;21.24;100.00;99194.34;5100056;28;20050;-86
2023/09/16 10:30:36;;;;;;;22.13;13.63;;;;;;;21.31;100.00;99186.09;5098778;28;20042;-86
2023/09/16 10:33:21;;;;;;;20.45;14.10;;;;;;;20.47;100.00;99189.38;5110879;28;20454;-87
2023/09/16 10:36:06;;;;;;;26.95;14.88;;;;;;;20.92;100.00;99177.41;5078488;28;20119;-88
2023/09/16 10:38:50;;;;;;;22.33;12.93;;;;;;;20.97;100.00;99182.75;5101266;28;20050;-86
2023/09/16 10:41:35;;;;;;;26.52;14.27;;;;;;;21.39;100.00;99180.22;5096841;28;20451;-87
2023/09/16 10:44:20;;;;;;;21.02;13.82;;;;;;;21.35;100.00;99176.47;5085256;28;20073;-88
2023/09/16 10:47:06;;;;;;;22.80;12.88;;;;;;;21.02;100.00;99183.81;5088366;28;20409;-87
2023/09/16 10:49:50;;;;;;;21.42;12.63;;;;;;;21.26;100.00;99185.00;5088527;28;20131;-86
2023/09/16 10:52:47;;;;;;;22.23;12.77;;;;;;;21.32;100.00;99185.84;5102546;28;20093;-86
2023/09/16 10:55:41;;;;;;;19.83;13.90;;;;;;;21.66;100.00;99187.28;5103049;28;20150;-87
2023/09/16 10:58:31;;;;;;;27.87;14.47;;;;;;;21.35;100.00;99192.50;5102775;28;20069;-88
2023/09/16 11:01:31;;;;;;;26.48;14.05;;;;;;;21.42;100.00;99193.06;5099826;28;20446;-87
2023/09/16 11:04:18;;;;;;;18.20;13.07;;;;;;;21.56;100.00;99196.03;5087209;28;20129;-87
2023/09/16 11:07:03;;;;;;;23.55;14.68;;;;;;;21.35;100.00;99187.16;5094992;28;20067;-86
2023/09/16 11:09:50;;;;;;;24.65;13.05;;;;;;;21.88;100.00;99194.25;5079645;28;20093;-85
2023/09/16 11:12:35;;;;;;;24.60;13.35;;;;;;;22.04;100.00;99190.53;5100297;28;20556;-86
2023/09/16 11:15:19;;;;;;;23.02;14.52;;;;;;;21.59;100.00;99190.16;5088622;28;20042;-86
2023/09/16 11:18:05;;;;;;;19.08;13.23;;;;;;;21.66;100.00;99189.94;5089530;28;20043;-85
2023/09/16 11:20:50;;;;;;;23.13;13.80;;;;;;;21.83;100.00;99177.16;5088422;28;20046;-86
2023/09/16 11:23:36;;;;;;;24.65;15.13;;;;;;;21.82;100.00;99180.91;5102145;28;20439;-86
2023/09/16 11:26:22;;;;;;;28.23;13.75;;;;;;;21.90;100.00;99181.44;5092047;28;20082;-85
2023/09/16 11:29:21;;;;;;;22.73;13.50;;;;;;;21.67;100.00;99189.66;5102732;28;20128;-87
2023/09/16 11:32:05;;;;;;;21.25;12.80;;;;;;;21.96;100.00;99186.50;5086380;28;20081;-87
2023/09/16 11:34:58;;;;;;;21.10;11.70;;;;;;;22.06;100.00;99192.91;5105142;28;20039;-86
2023/09/16 11:37:43;;;;;;;20.57;11.73;;;;;;;23.08;100.00;99187.69;5076196;28;20054;-86
2023/09/16 11:40:33;;;;;;;29.77;13.15;;;;;;;22.70;100.00;99197.97;5073424;28;20079;-87
2023/09/16 11:43:18;;;;;;;19.25;12.35;;;;;;;22.32;100.00;99193.72;5070609;28;20048;-87
2023/09/16 11:46:02;;;;;;;22.83;11.60;;;;;;;22.11;100.00;99188.38;5072142;28;20059;-86
2023/09/16 11:48:47;;;;;;;17.83;11.15;;;;;;;21.97;100.00;99195.31;5082093;28;20051;-86
2023/09/16 11:51:33;;;;;;;18.80;10.63;;;;;;;22.63;100.00;99196.38;5070954;28;20113;-87
2023/09/16 11:54:18;;;;;;;20.92;11.85;;;;;;;22.78;100.00;99200.09;5076543;28;20543;-85
2023/09/16 11:57:03;;;;;;;25.38;11.63;;;;;;;22.18;100.00;99201.47;5084224;28;20504;-86
2023/09/16 11:59:48;;;;;;;25.02;11.93;;;;;;;22.70;100.00;99209.50;5081077;28;20112;-87
2023/09/16 12:02:33;;;;;;;21.27;12.35;;;;;;;22.56;100.00;99216.47;5069674;28;20047;-86
2023/09/16 12:05:18;;;;;;;20.70;11.35;;;;;;;22.52;100.00;99213.53;5070210;28;20063;-87
2023/09/16 12:08:03;;;;;;;20.85;12.50;;;;;;;21.67;100.00;99218.25;5076365;28;20131;-85
2023/09/16 12:10:48;;;;;;;18.70;11.07;;;;;;;22.38;100.00;99211.34;5073889;28;20394;-86
2023/09/16 12:13:33;;;;;;;21.13;11.10;;;;;;;23.47;99.04;99204.94;5083529;28;20039;-86
2023/09/16 12:16:17;;;;;;;19.92;11.32;;;;;;;22.78;100.00;99216.13;5082861;28;20058;-86
2023/09/16 12:19:02;;;;;;;18.05;11.00;;;;;;;22.74;100.00;99212.41;5074983;28;20154;-87
2023/09/16 12:21:47;;;;;;;22.70;11.40;;;;;;;23.35;98.19;99215.97;5080271;28;20101;-86
2023/09/16 12:24:31;;;;;;;17.08;10.88;;;;;;;23.46;98.29;99214.84;5073513;28;20078;-86
2023/09/16 12:27:15;;;;;;;19.58;11.70;;;;;;;23.21;97.43;99215.75;5082891;28;20038;-85
2023/09/16 12:29:59;;;;;;;23.67;13.38;;;;;;;22.31;100.00;99218.84;5072803;28;20070;-86
2023/09/16 12:32:51;;;;;;;29.15;11.65;;;;;;;22.48;99.48;99218.59;5077708;28;20039;-85
2023/09/16 12:35:41;;;;;;;21.15;12.35;;;;;;;22.82;98.79;99218.00;5073733;28;20039;-87